Latest Weather Observations for Pallamana

IDS60801

Issued at 11:11 am CST Thursday 6 August 2020 (issued every 10 minutes, with the page automatically refreshed every 10 minutes)

About weather observations | Map of weather stations | Latest weather observations for SA | Other Formats
Station Details ID: 024584 Name: PALLAMANA AERODROME Lat: -35.06 Lon: 139.23 Height: 45.0 m
Data from the previous 72 hours. | See also: Recent months at Pallamana
Date/Time
CST
Temp
°C
App
Temp
°C
Dew
Point
°C
Rel
Hum
%
Delta-T
°C
Wind Press
QNH
hPa
Press
MSL
hPa
Rain since
9am
mm
Dir  Spd
km/h
Gust
km/h
Spd
kts
Gust
kts
06/11:00am 7.3 3.2 2.5 71 2.0 ENE 13 17 7 9 1021.8 1021.9 0.0
06/10:30am 6.2 2.5 2.3 76 1.6 ENE 11 15 6 8 1022.2 1022.3 0.0
06/10:00am 5.3 2.0 2.3 81 1.2 NNE 9 13 5 7 1022.1 1022.2 0.0
06/09:30am 4.9 2.2 2.7 86 0.9 NNW 6 9 3 5 1022.1 1022.2 0.0
06/09:00am 3.5 1.5 2.2 91 0.5 NW 2 7 1 4 1022.4 1022.5 0.0
06/08:30am 2.3 -0.8 1.5 94 0.3 N 7 9 4 5 1022.4 1022.5 0.0
06/08:00am 0.4 - - - - N 7 7 4 4 1022.3 1022.4 0.0
06/07:30am -1.6 - - - - W 4 6 2 3 1022.1 1022.2 0.0
06/07:00am -0.5 - - - - W 6 7 3 4 1021.7 1021.8 0.0
06/06:30am -0.6 - - - - WSW 6 7 3 4 1021.4 1021.5 0.0
06/06:00am -1.2 - - - - WSW 6 9 3 5 1021.4 1021.5 0.0
06/05:30am -0.9 - - - - NW 7 9 4 5 1021.5 1021.6 0.0
06/05:00am -1.2 - - - - CALM 0 0 0 0 1021.1 1021.1 0.0
06/04:30am -1.2 - - - - CALM 0 0 0 0 1021.2 1021.2 0.0
06/04:00am -1.3 - - - - CALM 0 0 0 0 1021.4 1021.5 0.0
06/03:30am -2.1 - - - - W 4 11 2 6 1021.3 1021.3 0.0
06/03:00am -0.5 - - - - W 6 7 3 4 1021.3 1021.3 0.0
06/02:30am -0.9 - - - - W 7 9 4 5 1021.3 1021.3 0.0
06/02:00am -1.0 - - - - CALM 0 4 0 2 1021.2 1021.2 0.0
06/01:30am 0.6 - - - - SW 7 9 4 5 1021.2 1021.2 0.0
06/01:00am 0.0 - - - - SW 6 7 3 4 1021.2 1021.2 0.0
06/12:30am -0.8 - - - - SW 6 7 3 4 1021.1 1021.1 0.0
06/12:00am 1.4 -2.4 -0.9 85 0.8 SSW 9 11 5 6 1020.9 1020.9 0.0
 
Date/Time
CST
Temp
°C
App
Temp
°C
Dew
Point
°C
Rel
Hum
%
Delta-T
°C
Wind Press
QNH
hPa
Press
MSL
hPa
Rain since
9am
mm
Dir  Spd
km/h
Gust
km/h
Spd
kts
Gust
kts
05/11:30pm -0.1 - - - - SSW 7 9 4 5 1020.8 1020.8 0.0
05/11:00pm -0.1 - - - - SSW 7 9 4 5 1021.0 1021.0 0.0
05/10:30pm 1.9 -0.2 -0.9 82 1.0 CALM 0 0 0 0 1021.3 1021.3 0.0
05/10:00pm 1.2 -2.1 -1.6 81 1.0 S 6 7 3 4 1021.3 1021.3 0.0
05/09:30pm 2.5 -0.9 -0.8 79 1.2 S 7 9 4 5 1021.2 1021.2 0.0
05/09:00pm 3.0 -0.4 -0.3 79 1.2 S 7 7 4 4 1021.2 1021.2 0.0
05/08:30pm 2.7 -1.5 -0.6 79 1.2 S 11 15 6 8 1020.6 1020.6 0.0
05/08:00pm 3.7 -0.8 0.0 77 1.4 S 13 15 7 8 1020.2 1020.2 0.0
05/07:30pm 4.9 0.2 0.8 75 1.6 S 15 17 8 9 1020.0 1020.0 0.0
05/07:00pm 5.3 0.9 0.1 69 2.0 S 13 17 7 9 1020.1 1020.1 0.0
05/06:30pm 4.4 -0.3 -2.0 63 2.3 S 13 17 7 9 1020.1 1020.1 0.0
05/06:00pm 4.8 1.1 -2.5 59 2.6 S 7 9 4 5 1020.0 1020.0 0.0
05/05:30pm 6.9 3.0 -1.4 55 3.1 SSE 9 11 5 6 1019.9 1019.9 0.0
05/05:00pm 10.6 5.8 -2.9 38 5.1 SSE 13 15 7 8 1019.8 1019.8 0.0
05/04:30pm 11.9 7.4 -3.4 34 5.8 SE 11 15 6 8 1019.8 1019.8 0.0
05/04:00pm 12.5 7.6 -3.6 32 6.1 SSE 13 19 7 10 1019.6 1019.6 0.0
05/03:30pm 12.8 7.6 -3.0 33 6.1 SE 15 19 8 10 1019.4 1019.4 0.0
05/03:00pm 13.0 8.8 -3.5 31 6.3 ENE 9 17 5 9 1019.5 1019.5 0.0
05/02:30pm 12.9 9.3 -2.4 34 6.0 SSW 7 13 4 7 1019.5 1019.5 0.0
05/02:00pm 12.6 8.1 -3.4 32 6.1 ENE 11 17 6 9 1019.8 1019.8 0.0
05/01:30pm 12.4 7.6 -2.9 34 5.9 E 13 19 7 10 1020.4 1020.4 0.0
05/01:00pm 12.3 8.4 -1.6 38 5.5 E 9 17 5 9 1020.6 1020.6 0.0
05/12:30pm 11.9 6.3 -2.6 36 5.6 E 17 20 9 11 1021.0 1021.0 0.0
05/12:00pm 11.6 7.8 -0.9 42 5.0 ENE 9 20 5 11 1021.7 1021.8 0.0
05/11:30am 11.5 6.8 -1.5 40 5.1 E 13 22 7 12 1022.1 1022.2 0.0
05/11:00am 10.4 5.5 -0.4 47 4.3 ESE 15 20 8 11 1022.4 1022.5 0.0
05/10:30am 9.6 5.7 1.0 55 3.5 ESE 11 15 6 8 1022.5 1022.6 0.0
05/10:00am 8.4 5.6 3.0 69 2.3 ESE 7 11 4 6 1022.7 1022.8 0.0
05/09:30am 7.4 5.9 3.1 74 1.8 CALM 0 0 0 0 1022.8 1022.9 0.0
05/09:00am 4.1 2.3 1.5 83 1.0 CALM 0 0 0 0 1022.9 1023.0 0.0
05/08:30am 1.3 -0.7 -0.1 90 0.5 CALM 0 0 0 0 1022.7 1022.8 0.0
05/08:00am -1.5 - - - - CALM 0 0 0 0 1022.5 1022.6 0.0
05/07:30am -3.8 - - - - CALM 0 0 0 0 1022.2 1022.3 0.0
05/07:00am -3.6 - - - - CALM 0 0 0 0 1021.7 1021.8 0.0
05/06:30am -3.8 - - - - WSW 6 7 3 4 1021.3 1021.3 0.0
05/06:00am -3.4 - - - - SE 2 7 1 4 1021.3 1021.3 0.0
05/05:30am -2.0 - - - - CALM 0 0 0 0 1021.1 1021.1 0.0
05/05:00am -3.1 - - - - CALM 0 0 0 0 1021.2 1021.2 0.0
05/04:30am -1.9 - - - - WNW 7 9 4 5 1021.2 1021.2 0.0
05/04:00am -2.6 - - - - WNW 6 7 3 4 1021.0 1021.0 0.0
05/03:30am -2.2 - - - - WNW 6 7 3 4 1020.8 1020.8 0.0
05/03:00am -2.2 - - - - CALM 0 0 0 0 1020.9 1020.9 0.0
05/02:30am -0.6 - - - - WNW 11 13 6 7 1021.1 1021.1 0.0
05/02:00am -0.6 - - - - NW 7 7 4 4 1021.3 1021.3 0.0
05/01:30am -0.4 - - - - WSW 6 7 3 4 1021.6 1021.7 0.0
05/01:00am 2.0 0.0 -0.2 85 0.8 CALM 0 0 0 0 1021.7 1021.8 0.0
05/12:30am 0.1 - - - - SSW 6 13 3 7 1021.7 1021.8 0.0
05/12:00am 1.9 -1.8 0.0 87 0.7 SW 9 9 5 5 1021.8 1021.9 0.0
 
Date/Time
CST
Temp
°C
App
Temp
°C
Dew
Point
°C
Rel
Hum
%
Delta-T
°C
Wind Press
QNH
hPa
Press
MSL
hPa
Rain since
9am
mm
Dir  Spd
km/h
Gust
km/h
Spd
kts
Gust
kts
04/11:30pm 1.2 -2.1 -0.2 90 0.5 S 7 9 4 5 1021.9 1022.0 0.0
04/11:00pm 2.4 -0.5 1.4 93 0.4 WSW 6 7 3 4 1022.0 1022.1 0.0
04/10:30pm 3.0 -0.5 1.4 89 0.6 S 9 11 5 6 1022.1 1022.2 0.0
04/10:00pm 4.3 1.0 2.3 87 0.8 WSW 9 13 5 7 1022.2 1022.3 0.0
04/09:30pm 1.9 -1.7 0.3 89 0.6 W 9 11 5 6 1022.1 1022.2 0.0
04/09:00pm 2.7 -0.8 1.4 91 0.5 WSW 9 11 5 6 1022.0 1022.1 0.0
04/08:30pm 4.1 1.1 1.8 85 0.9 WSW 7 9 4 5 1021.8 1021.9 0.0
04/08:00pm 4.4 1.5 2.4 87 0.8 S 7 11 4 6 1021.6 1021.7 0.0
04/07:30pm 5.3 1.7 3.1 86 0.9 S 11 15 6 8 1021.5 1021.6 0.0
04/07:00pm 4.6 0.5 2.4 86 0.9 SSW 13 15 7 8 1021.3 1021.3 0.0
04/06:30pm 5.1 1.1 2.9 86 0.9 SSW 13 15 7 8 1021.2 1021.2 0.0
04/06:00pm 6.1 2.1 2.7 79 1.4 SSW 13 15 7 8 1020.9 1020.9 0.0
04/05:30pm 8.0 4.0 2.8 70 2.2 SSW 13 17 7 9 1020.6 1020.6 0.0
04/05:00pm 9.9 5.5 2.6 60 3.1 S 15 20 8 11 1020.4 1020.4 0.0
04/04:30pm 11.2 6.6 1.7 52 4.0 S 15 22 8 12 1020.4 1020.4 0.0
04/04:00pm 11.7 6.7 1.5 49 4.3 S 17 22 9 12 1020.2 1020.2 0.0
04/03:30pm 11.7 5.6 0.6 46 4.6 S 22 30 12 16 1020.1 1020.1 0.0
04/03:00pm 12.3 6.5 -0.2 42 5.1 S 20 30 11 16 1020.1 1020.1 0.0
04/02:30pm 12.4 6.6 -0.3 41 5.2 S 20 26 11 14 1020.0 1020.0 0.0
04/02:00pm 12.5 6.7 0.2 43 5.1 S 20 30 11 16 1019.9 1019.9 0.0
04/01:30pm 11.7 5.5 -0.1 44 4.8 S 22 32 12 17 1020.0 1020.0 0.0
04/01:00pm 12.2 6.3 -1.0 40 5.3 S 20 32 11 17 1020.2 1020.2 0.0
04/12:30pm 11.5 5.8 -0.7 43 4.9 SSW 19 35 10 19 1020.7 1020.7 0.0
04/12:00pm 11.5 5.2 -0.7 43 4.9 S 22 32 12 17 1021.0 1021.0 0.0
04/11:30am 11.3 6.4 1.9 52 4.0 S 17 28 9 15 1021.4 1021.5 0.0
04/11:00am 11.3 6.3 1.6 51 4.1 S 17 26 9 14 1021.6 1021.7 0.0
04/10:30am 11.2 7.2 2.6 55 3.7 SSE 13 20 7 11 1021.6 1021.7 0.0
04/10:00am 10.2 7.2 4.1 66 2.7 SSE 9 13 5 7 1021.6 1021.7 0.0
04/09:30am 9.3 6.8 3.8 68 2.4 WSW 6 11 3 6 1021.4 1021.5 0.0
04/09:00am 8.4 6.3 3.8 73 2.0 W 4 7 2 4 1021.3 1021.3 0.8
04/08:30am 8.1 6.9 4.7 79 1.5 CALM 0 0 0 0 1021.0 1021.0 0.8
04/08:00am 5.2 2.7 3.8 91 0.6 SW 6 7 3 4 1020.6 1020.6 0.8
04/07:30am 4.7 1.4 2.7 87 0.8 SSW 9 9 5 5 1020.2 1020.2 0.8
04/07:00am 6.1 3.6 4.5 89 0.7 SW 7 9 4 5 1019.8 1019.8 0.8
04/06:30am 7.1 4.3 5.3 88 0.8 SSW 9 11 5 6 1019.5 1019.5 0.8
04/06:00am 7.1 4.0 5.5 89 0.7 SW 11 15 6 8 1019.2 1019.2 0.6
04/05:30am 7.4 3.1 5.4 87 0.9 S 17 20 9 11 1018.9 1018.9 0.6
04/05:00am 7.4 4.8 6.3 93 0.5 S 9 11 5 6 1018.8 1018.8 0.6
04/04:54am 7.4 4.5 6.3 93 0.5 S 11 15 6 8 1018.8 1018.8 0.6
04/04:33am 7.3 4.0 6.4 94 0.4 WSW 13 15 7 8 1018.8 1018.8 0.4
04/04:30am 7.2 4.6 6.3 94 0.4 WSW 9 15 5 8 1018.8 1018.8 0.4
04/04:04am 7.1 4.6 6.4 95 0.3 SW 9 11 5 6 1018.7 1018.7 0.2
04/04:01am 7.1 4.6 6.4 95 0.3 SW 9 13 5 7 1018.7 1018.7 0.2
04/04:00am 7.1 4.6 6.4 95 0.3 SW 9 13 5 7 1018.7 1018.7 0.2
04/03:30am 6.9 2.8 6.0 94 0.4 SW 17 20 9 11 1018.7 1018.7 0.2
04/03:24am 6.9 2.3 5.8 93 0.5 WSW 19 26 10 14 1018.7 1018.7 0.2
04/03:07am 6.4 2.4 5.0 91 0.6 WSW 15 19 8 10 1018.6 1018.6 0.0
04/03:01am 6.1 1.3 4.7 91 0.6 WSW 19 24 10 13 1018.5 1018.5 0.0
04/03:00am 6.2 1.4 4.6 89 0.7 WSW 19 24 10 13 1018.5 1018.5 0.0
04/02:49am 6.5 1.0 3.9 83 1.1 SW 22 28 12 15 1018.5 1018.5 0.0
04/02:30am 6.0 0.8 2.3 77 1.5 WSW 19 20 10 11 1018.2 1018.2 0.0
04/02:00am 6.0 1.1 2.0 75 1.6 W 17 20 9 11 1018.3 1018.3 0.0
04/01:30am 6.1 2.1 3.0 80 1.3 W 13 15 7 8 1018.4 1018.4 0.0
04/01:00am 7.0 2.8 3.7 79 1.4 W 15 19 8 10 1018.5 1018.5 0.0
04/12:30am 7.0 2.8 4.0 81 1.3 W 15 19 8 10 1018.5 1018.5 0.0
04/12:00am 7.0 3.0 4.7 85 1.0 W 15 19 8 10 1018.6 1018.6 0.0
 
Date/Time
CST
Temp
°C
App
Temp
°C
Dew
Point
°C
Rel
Hum
%
Delta-T
°C
Wind Press
QNH
hPa
Press
MSL
hPa
Rain since
9am
mm
Dir  Spd
km/h
Gust
km/h
Spd
kts
Gust
kts
03/11:30pm 7.0 3.1 5.4 89 0.7 W 15 17 8 9 1018.5 1018.5 0.0
03/11:00pm 6.9 3.5 6.0 94 0.4 WNW 13 15 7 8 1018.6 1018.6 0.0
03/10:30pm 7.5 5.0 6.4 93 0.5 W 9 11 5 6 1018.6 1018.6 0.0
03/10:00pm 8.0 5.2 7.1 94 0.4 SW 11 17 6 9 1018.7 1018.7 0.0
03/09:30pm 8.7 5.3 7.6 93 0.5 SW 15 17 8 9 1018.7 1018.7 0.0
03/09:00pm 8.7 5.7 7.6 93 0.5 SW 13 17 7 9 1018.6 1018.6 0.0
03/08:40pm 9.7 6.1 8.5 92 0.6 SW 17 20 9 11 1018.5 1018.5 0.0
03/08:30pm 9.6 6.1 8.6 93 0.5 WSW 17 20 9 11 1018.4 1018.4 0.0
03/08:00pm 9.2 5.5 7.9 92 0.6 SSW 17 22 9 12 1018.2 1018.2 0.0
03/07:30pm 8.1 4.1 6.8 91 0.6 SW 17 19 9 10 1017.8 1017.8 0.0
03/07:00pm 7.6 4.6 5.8 88 0.8 SW 11 13 6 7 1017.7 1017.7 0.0
03/06:30pm 8.3 4.6 6.3 87 0.9 SW 15 17 8 9 1017.6 1017.6 0.0
03/06:00pm 9.7 6.1 6.9 83 1.3 SW 15 17 8 9 1017.2 1017.2 0.0
03/05:30pm 12.0 8.1 7.0 71 2.4 SSW 17 24 9 13 1016.9 1016.9 0.0
03/05:00pm 12.4 9.0 5.8 64 3.1 SSW 13 20 7 11 1016.8 1016.8 0.0
03/04:30pm 12.9 8.5 4.6 57 3.8 S 17 22 9 12 1016.5 1016.5 0.0
03/04:00pm 13.3 9.5 5.6 59 3.6 S 15 20 8 11 1016.6 1016.6 0.0
03/03:30pm 13.7 9.3 6.4 61 3.5 S 19 26 10 14 1016.6 1016.6 0.0
03/03:00pm 14.0 10.1 7.0 62 3.4 SSW 17 22 9 12 1016.7 1016.7 0.0
03/02:30pm 13.9 9.5 6.7 62 3.5 S 19 26 10 14 1016.8 1016.8 0.0
03/02:00pm 14.7 10.8 7.2 61 3.7 S 17 20 9 11 1016.9 1016.9 0.0
03/01:30pm 14.8 12.8 7.3 61 3.7 S 7 13 4 7 1017.2 1017.2 0.0
03/01:00pm 14.7 11.7 7.6 62 3.5 S 13 19 7 10 1017.8 1017.8 0.0
03/12:30pm 14.3 12.5 7.1 62 3.5 SSW 6 9 3 5 1018.4 1018.4 0.0
03/12:00pm 14.6 12.6 7.3 61 3.6 S 7 11 4 6 1018.8 1018.8 0.0
03/11:30am 13.9 11.7 6.4 60 3.6 SW 7 11 4 6 1019.2 1019.2 0.0

Other formats

Comma delimited format used in spreadsheet applications
http://www.bom.gov.au/fwo/IDS60801/IDS60801.95818.axf

JavaScript Object Notation format (JSON) in row-major order
http://www.bom.gov.au/fwo/IDS60801/IDS60801.95818.json

Data quality

Most of these data are generated automatically and are frequently updated. Quality checks on data are not normally performed. It is possible for incorrect values to appear. Refer to information at About Latest Weather Observations and please check the disclaimer before using these data.